Flight Track Log - Related Links

Times and Time Zones

All times are in EDT time to prevent confusion due to time zone crossing. See the SKW7367 flight status page for this flight to view local times or setup timezone preferences in your user account.

Time Position Orientation Groundspeed Altitude Reporting Facility
EDT Latitude Longitude Course Direction KTS MPH feet Rate Location/Type
Wed 04:08:16 PM 42.2058 -83.3700 225° Southwest 153 176 1,300  Level Cleveland Center
Wed 04:08:35 PM 42.1964 -83.3828 225° Southwest 166 191 1,900 2,000 Climbing Cleveland Center
Wed 04:09:37 PM 42.1581 -83.4447 230° Southwest 243 280 4,000 2,152 Climbing Cleveland Center
Wed 04:10:07 PM 42.1394 -83.4828 237° Southwest 247 284 5,200 3,000 Climbing Cleveland Center
Wed 04:10:37 PM 42.1486 -83.5392 282° West 287 330 7,000 2,903 Climbing Cleveland Center
Wed 04:11:09 PM 42.1614 -83.5744 296° West 294 338 8,200 2,951 Climbing Cleveland Center
Wed 04:11:38 PM 42.2028 -83.6203 321° Northwest 298 343 10,000 2,806 Climbing Cleveland Center
Wed 04:12:11 PM 42.2264 -83.6447 323° Northwest 304 350 11,100 2,226 Climbing Cleveland Center
Wed 04:12:40 PM 42.2706 -83.6894 323° Northwest 317 365 12,300 1,645 Climbing Cleveland Center
Wed 04:13:13 PM 42.3050 -83.6925 356° North 328 377 12,800 1,516 Climbing Cleveland Center
Wed 04:14:15 PM 42.3878 -83.6444 23° Northeast 319 367 14,700 1,065 Climbing Cleveland Center
Wed 04:15:17 PM 42.4928 -83.5886 21° North 333 383 15,000 145 Climbing Cleveland Center
Wed 04:16:19 PM 42.5831 -83.5397 22° Northeast 345 397 15,000  Level Cleveland Center
Wed 04:17:21 PM 42.6725 -83.4928 21° North 344 396 15,000  Level Cleveland Center
Wed 04:18:23 PM 42.7558 -83.4478 22° Northeast 327 376 15,000  Level Cleveland Center
Wed 04:19:25 PM 42.8392 -83.4031 21° North 321 369 15,000  Level Cleveland Center
Wed 04:20:27 PM 42.9244 -83.3625 19° North 323 372 15,000 48 Level Cleveland Center
Wed 04:21:30 PM 43.0178 -83.3728 355° North 335 386 15,100 48 Climbing Cleveland Center
Wed 04:22:32 PM 43.1258 -83.3817 357° North 325 374 15,100  Level Cleveland Center
Wed 04:23:34 PM 43.2172 -83.3897 356° North 328 377 15,100  Level Cleveland Center
Wed 04:24:36 PM 43.3072 -83.3950 358° North 325 374 15,100  Level Cleveland Center
Wed 04:25:38 PM 43.3989 -83.4033 356° North 328 377 15,100 -48 Level Cleveland Center
Wed 04:26:40 PM 43.4917 -83.4114 356° North 333 383 15,000 -48 Descending Cleveland Center
Wed 04:27:42 PM 43.6036 -83.4211 356° North 335 386 15,000  Level Cleveland Center
Wed 04:28:14 PM 43.6450 -83.4261 355° North 335 386 15,000  Level Minneapolis Center
Wed 04:29:16 PM 43.7389 -83.4353 356° North 335 386 15,000  Level Minneapolis Center
Wed 04:30:18 PM 43.8308 -83.4433 356° North 333 383 15,000  Level Minneapolis Center
Wed 04:31:20 PM 43.9411 -83.4533 356° North 336 387 15,000  Level Minneapolis Center
Wed 04:32:22 PM 44.0325 -83.4625 356° North 334 384 15,000  Level Minneapolis Center
Wed 04:33:24 PM 44.1311 -83.4706 357° North 331 381 15,000 -97 Level Minneapolis Center
Wed 04:34:26 PM 44.2228 -83.4786 356° North 335 386 14,800 -823 Descending Minneapolis Center
Wed 04:35:28 PM 44.3194 -83.4872 356° North 328 377 13,300 -1,403 Descending Minneapolis Center
Wed 04:36:30 PM 44.4061 -83.4961 356° North 317 365 11,900 -1,355 Descending Minneapolis Center
Wed 04:37:32 PM 44.4931 -83.5044 356° North 297 342 10,500 -1,210 Descending Minneapolis Center
Wed 04:38:34 PM 44.5728 -83.5117 356° North 292 336 9,400 -1,056 Descending Minneapolis Center
Wed 04:39:37 PM 44.6572 -83.5200 356° North 285 328 8,300 -1,056 Descending Minneapolis Center
Wed 04:40:39 PM 44.7386 -83.5281 356° North 277 319 7,200 -1,161 Descending Minneapolis Center
Wed 04:41:41 PM 44.8131 -83.5344 357° North 273 314 5,900 -919 Descending Minneapolis Center
Wed 04:42:43 PM 44.8828 -83.5350 360° North 231 266 5,300 -774 Descending Minneapolis Center
Wed 04:43:45 PM 44.9414 -83.5264 North 214 246 4,300 -919 Descending Minneapolis Center
Wed 04:44:47 PM 45.0047 -83.5167 North 215 247 3,400 -823 Descending Minneapolis Center
Wed 04:45:49 PM 45.0594 -83.5006 12° North 210 242 2,600 -435 Descending Minneapolis Center
Wed 04:46:51 PM 45.1153 -83.4925 North 192 221 2,500 -242 Descending Minneapolis Center
Wed 04:47:53 PM 45.1342 -83.5519 294° West 178 205 2,100 -774 Descending Minneapolis Center
Wed 04:48:55 PM 45.0978 -83.5608 190° South 139 160 900 -1,161 Descending Minneapolis Center

Login

Don't have an account? Register now (free) for customized features, flight alerts, and more!